createdAt,value
2022-09-05T00:01:53.711Z,6.03
2022-09-05T00:06:59.560Z,4.22
2022-09-05T00:12:00.784Z,5.82
2022-09-05T00:17:09.842Z,5.05
2022-09-05T00:24:29.348Z,7.25
2022-09-05T00:28:25.918Z,5.00
2022-09-05T00:33:31.703Z,4.30
2022-09-05T00:38:37.017Z,6.28
2022-09-05T00:43:46.803Z,4.20
2022-09-05T00:48:49.091Z,3.92
2022-09-05T00:54:02.636Z,4.82
2022-09-05T00:59:40.667Z,5.22
2022-09-05T01:04:50.832Z,5.15
2022-09-05T01:10:03.586Z,4.22
2022-09-05T01:15:18.296Z,5.40
2022-09-05T01:20:36.483Z,5.47
2022-09-05T01:25:55.306Z,5.68
2022-09-05T01:31:02.288Z,4.93
2022-09-05T01:36:18.076Z,6.45
2022-09-05T01:41:23.666Z,9.13
2022-09-05T01:46:34.253Z,10.98
2022-09-05T01:51:40.929Z,5.15
2022-09-05T01:56:48.023Z,6.82
2022-09-05T02:02:13.080Z,5.50
2022-09-05T02:07:31.258Z,6.00
2022-09-05T02:12:35.179Z,6.03
2022-09-05T02:17:50.350Z,5.15
2022-09-05T02:23:00.063Z,6.68
2022-09-05T02:28:11.138Z,7.35
2022-09-05T02:33:17.083Z,6.55
2022-09-05T02:40:51.988Z,13.85
2022-09-05T02:45:17.415Z,8.18
2022-09-05T02:49:24.583Z,8.50
2022-09-05T02:57:43.077Z,6.10
2022-09-05T03:00:05.189Z,5.60
2022-09-05T03:05:12.777Z,5.45
2022-09-05T03:10:53.693Z,6.30
2022-09-05T03:16:27.473Z,5.60
2022-09-05T03:21:54.185Z,7.47
2022-09-05T03:27:32.449Z,6.80
2022-09-05T03:33:18.434Z,7.78
2022-09-05T03:38:51.827Z,6.75
2022-09-05T03:44:13.386Z,5.72
2022-09-05T03:53:16.415Z,8.23
2022-09-05T03:57:28.078Z,5.97
2022-09-05T04:01:10.772Z,6.47
2022-09-05T04:08:15.120Z,9.93
2022-09-05T04:12:13.290Z,10.02
2022-09-05T04:17:24.079Z,14.93
2022-09-05T04:22:41.606Z,13.70
2022-09-05T04:28:25.848Z,11.30
2022-09-05T04:33:43.674Z,8.50
2022-09-05T04:39:21.799Z,9.57
2022-09-05T04:44:27.431Z,9.40
2022-09-05T04:49:28.674Z,10.25
2022-09-05T05:05:52.222Z,12.63
2022-09-05T05:06:15.486Z,12.00
2022-09-05T05:17:54.475Z,13.45
2022-09-05T05:18:09.411Z,14.32
2022-09-05T05:22:01.479Z,13.57
2022-09-05T05:27:08.155Z,13.38
2022-09-05T05:32:54.101Z,10.77
2022-09-05T05:37:56.152Z,8.27
2022-09-05T05:43:12.395Z,11.30
2022-09-05T05:48:42.178Z,10.35
2022-09-05T05:53:58.384Z,6.85
2022-09-05T05:59:38.414Z,10.85
2022-09-05T06:05:38.087Z,9.82
2022-09-05T06:14:53.053Z,8.00
2022-09-05T06:16:58.511Z,8.57
2022-09-05T06:22:54.095Z,10.80
2022-09-05T06:28:30.305Z,8.77
2022-09-05T06:39:46.549Z,7.68
2022-09-05T06:45:28.274Z,10.20
2022-09-05T06:51:06.918Z,9.52
2022-09-05T06:56:25.919Z,15.88
2022-09-05T07:02:00.162Z,10.38
2022-09-05T07:07:13.175Z,10.82
2022-09-05T07:12:18.693Z,9.00
2022-09-05T07:18:06.488Z,10.00
2022-09-05T07:23:47.669Z,5.82
2022-09-05T07:28:33.820Z,7.25
2022-09-05T07:33:32.236Z,7.43
2022-09-05T07:39:28.168Z,7.75
2022-09-05T07:44:56.588Z,12.23
2022-09-05T07:52:19.111Z,6.65
2022-09-05T07:57:00.913Z,6.65
2022-09-05T08:00:59.218Z,5.13
2022-09-05T08:06:01.695Z,4.78
2022-09-05T08:11:23.587Z,5.15
2022-09-05T08:22:02.556Z,3.85
2022-09-05T08:27:15.982Z,5.40
2022-09-05T08:33:11.227Z,4.78
2022-09-05T08:38:25.133Z,4.20
2022-09-05T08:46:35.827Z,7.15
2022-09-05T08:49:32.258Z,6.90
2022-09-05T08:55:10.125Z,4.30
2022-09-05T09:00:20.821Z,3.97
2022-09-05T09:06:15.621Z,4.40
2022-09-05T09:11:28.628Z,17.88
2022-09-05T09:16:34.963Z,3.40
2022-09-05T09:21:56.576Z,4.47
2022-09-05T09:27:15.219Z,4.00
2022-09-05T09:32:43.518Z,4.72
2022-09-05T09:38:18.850Z,3.63
2022-09-05T09:43:25.026Z,11.15
2022-09-05T09:48:46.397Z,4.10
2022-09-05T09:54:15.930Z,4.93
2022-09-05T10:00:22.614Z,4.07
2022-09-05T10:10:45.152Z,4.20
2022-09-05T10:17:19.654Z,4.32
2022-09-05T10:22:36.555Z,3.50
2022-09-05T10:28:00.413Z,4.93
2022-09-05T10:35:14.945Z,4.90
2022-09-05T10:39:18.405Z,4.75
2022-09-05T10:44:32.594Z,3.80
2022-09-05T10:49:36.098Z,5.25
2022-09-05T10:54:53.027Z,5.25
2022-09-05T11:02:24.775Z,8.68
2022-09-05T11:05:51.685Z,7.00
2022-09-05T11:11:01.159Z,6.35
2022-09-05T11:22:23.701Z,4.80
2022-09-05T11:28:13.306Z,6.20
2022-09-05T11:39:45.991Z,6.25
2022-09-05T11:46:44.745Z,5.38
2022-09-05T11:52:59.082Z,5.10
2022-09-05T12:50:22.630Z,5.28
2022-09-05T13:03:11.348Z,9.07
2022-09-05T13:07:06.974Z,5.10
2022-09-05T13:18:00.698Z,5.97
2022-09-05T13:29:10.631Z,6.20
2022-09-05T13:40:19.621Z,6.80
2022-09-05T13:45:20.341Z,6.20
2022-09-05T13:50:26.130Z,6.43
2022-09-05T13:55:45.390Z,8.88
2022-09-05T14:01:14.484Z,6.38
2022-09-05T14:12:32.631Z,6.38
2022-09-05T14:17:55.225Z,4.82
2022-09-05T14:23:04.385Z,4.88
2022-09-05T14:28:10.795Z,8.52
2022-09-05T14:37:41.990Z,6.93
2022-09-05T14:39:19.379Z,7.00
2022-09-05T14:45:17.735Z,6.45
2022-09-05T14:50:38.566Z,5.93
2022-09-05T14:55:38.129Z,4.88
2022-09-05T15:02:44.575Z,5.43
2022-09-05T15:06:15.484Z,7.57
2022-09-05T15:12:23.644Z,5.03
2022-09-05T15:17:04.575Z,4.55
2022-09-05T15:22:27.422Z,11.05
2022-09-05T15:27:37.576Z,9.23
2022-09-05T15:32:50.932Z,6.10
2022-09-05T15:43:30.515Z,7.05
2022-09-05T15:48:35.378Z,6.95
2022-09-05T15:53:37.755Z,7.15
2022-09-05T15:59:03.526Z,4.63
2022-09-05T16:09:37.255Z,5.35
2022-09-05T16:10:48.477Z,6.10
2022-09-05T16:18:58.598Z,8.43
2022-09-05T16:23:31.194Z,5.15
2022-09-05T16:27:24.696Z,6.47
2022-09-05T16:32:26.039Z,7.82
2022-09-05T16:37:41.010Z,9.50
2022-09-05T16:43:01.675Z,8.52
2022-09-05T16:48:24.361Z,7.82
2022-09-05T16:53:58.108Z,7.72
2022-09-05T16:59:30.885Z,11.98
2022-09-05T17:05:03.649Z,10.05
2022-09-05T17:11:03.731Z,21.23
2022-09-05T17:16:03.398Z,13.77
2022-09-05T17:21:43.436Z,14.70
2022-09-05T17:33:00.198Z,14.88
2022-09-05T17:45:04.009Z,19.48
2022-09-05T17:50:45.211Z,9.53
2022-09-05T17:56:26.996Z,7.75
2022-09-05T18:01:28.494Z,12.65
2022-09-05T18:07:00.563Z,9.77
2022-09-05T18:12:34.502Z,8.00
2022-09-05T18:18:31.317Z,7.93
2022-09-05T18:24:02.011Z,9.18
2022-09-05T18:29:15.901Z,5.07
2022-09-05T18:35:08.664Z,8.15
2022-09-05T18:40:43.705Z,8.18
2022-09-05T18:45:52.437Z,8.07
2022-09-05T18:50:53.107Z,8.40
2022-09-05T18:56:20.386Z,7.47
2022-09-05T19:01:30.643Z,5.95
2022-09-05T19:06:35.733Z,6.10
2022-09-05T19:11:52.697Z,6.13
2022-09-05T19:17:02.665Z,6.15
2022-09-05T19:23:08.713Z,5.93
2022-09-05T19:28:58.410Z,5.93
2022-09-05T19:37:09.791Z,7.03
2022-09-05T19:47:38.544Z,6.20
2022-09-05T19:49:18.123Z,6.45
2022-09-05T19:54:25.965Z,5.47
2022-09-05T20:00:11.560Z,4.35
2022-09-05T20:05:25.477Z,4.65
2022-09-05T20:17:28.135Z,5.60
2022-09-05T20:23:26.203Z,5.55
2022-09-05T20:28:38.038Z,3.33
2022-09-05T20:43:16.579Z,4.88
2022-09-05T20:51:14.112Z,9.20
2022-09-05T20:54:21.957Z,3.78
2022-09-05T20:57:25.042Z,4.50
2022-09-05T21:02:33.165Z,5.03
2022-09-05T21:08:13.011Z,3.90
2022-09-05T21:13:41.243Z,4.85
2022-09-05T21:18:52.626Z,4.90
2022-09-05T21:24:18.212Z,5.65
2022-09-05T21:29:32.566Z,4.32
2022-09-05T21:34:33.836Z,3.38
2022-09-05T21:39:56.931Z,5.72
2022-09-05T21:47:42.728Z,11.18
2022-09-05T21:50:53.647Z,3.97
2022-09-05T21:59:14.458Z,3.90
2022-09-05T22:01:12.277Z,4.05
2022-09-05T22:06:11.482Z,4.63
2022-09-05T22:11:12.819Z,2.92
2022-09-05T22:16:24.408Z,5.67
2022-09-05T22:21:45.331Z,4.05
2022-09-05T22:27:10.717Z,5.68
2022-09-05T22:32:07.771Z,6.30
2022-09-05T22:37:05.222Z,4.38
2022-09-05T22:42:02.454Z,5.25
2022-09-05T22:47:06.478Z,4.80
2022-09-05T22:52:09.486Z,4.38
2022-09-05T22:57:08.084Z,3.15
2022-09-05T23:02:13.862Z,3.22
2022-09-05T23:08:02.860Z,4.35
2022-09-05T23:13:16.384Z,5.72
2022-09-05T23:18:14.709Z,3.45
2022-09-05T23:23:15.845Z,2.90
2022-09-05T23:28:21.919Z,3.40
2022-09-05T23:33:20.622Z,4.63
2022-09-05T23:38:25.641Z,2.90
2022-09-05T23:43:25.203Z,4.15
2022-09-05T23:48:44.813Z,2.72
2022-09-05T23:53:48.383Z,4.32
2022-09-05T23:58:45.745Z,2.83
